ITY1173 LIRF-LICA

Flight info

Callsign ITY1173
Flight time 0h 50m
Altitude 35000
Route RIFFI DCT PNZ DCT VEXUV DCT EVINO DCT ARBUM
Aircraft A320/M-SDE3FGHIRWY/LB1

Departure

Time 2026-05-06 11:47
Airport Rome–Fiumicino Leonardo da Vinci International Airport (LIRF)

Arrival

Time 2026-05-06 12:38
Airport Lamezia Terme Sant'Eufemia International Airport (LICA)
Time Latitude Longitude Altitude Speed Heading
2026-05-06 11:25 41.79652 12.25591 14 ft 0 kts 298°
2026-05-06 11:36 41.79650 12.25595 14 ft 2 kts 298°
2026-05-06 11:36 41.79642 12.25615 15 ft 2 kts 298°
2026-05-06 11:36 41.79634 12.25636 16 ft 3 kts 314°
2026-05-06 11:36 41.79620 12.25650 16 ft 2 kts 349°
2026-05-06 11:37 41.79609 12.25652 14 ft 0 kts 12°
2026-05-06 11:41 41.79620 12.25656 14 ft 9 kts 17°
2026-05-06 11:41 41.79732 12.25726 14 ft 19 kts 25°
2026-05-06 11:41 41.79844 12.25802 14 ft 17 kts 31°
2026-05-06 11:41 41.79944 12.25868 16 ft 15 kts 24°
2026-05-06 11:42 41.80036 12.25924 15 ft 14 kts 25°
2026-05-06 11:42 41.80118 12.25975 14 ft 12 kts 25°
2026-05-06 11:42 41.80192 12.26021 14 ft 11 kts 25°
2026-05-06 11:42 41.80257 12.26060 15 ft 10 kts 25°
2026-05-06 11:43 41.80314 12.26096 15 ft 8 kts 25°
2026-05-06 11:43 41.80361 12.26125 14 ft 6 kts 24°
2026-05-06 11:43 41.80402 12.26150 16 ft 11 kts 25°
2026-05-06 11:44 41.80542 12.26275 16 ft 11 kts 67°
2026-05-06 11:44 41.80567 12.26363 17 ft 9 kts 70°
2026-05-06 11:44 41.80586 12.26438 16 ft 8 kts 71°
2026-05-06 11:44 41.80608 12.26525 17 ft 13 kts 71°
2026-05-06 11:45 41.80635 12.26633 18 ft 11 kts 71°
2026-05-06 11:45 41.80660 12.26728 15 ft 10 kts 70°
2026-05-06 11:45 41.80686 12.26816 14 ft 10 kts 68°
2026-05-06 11:45 41.80717 12.26918 13 ft 18 kts 68°
2026-05-06 11:46 41.80806 12.27034 13 ft 19 kts
2026-05-06 11:46 41.80910 12.26973 12 ft 16 kts 336°
2026-05-06 11:46 41.80941 12.26881 13 ft 0 kts 251°
2026-05-06 11:47 41.80887 12.26684 14 ft 59 kts 248°
2026-05-06 11:47 41.80661 12.25891 16 ft 121 kts 247°
2026-05-06 11:47 41.80308 12.24618 44 ft 166 kts 246°
2026-05-06 11:47 41.79998 12.23130 646 ft 165 kts 249°
2026-05-06 11:48 41.79621 12.21690 1277 ft 166 kts 241°
2026-05-06 11:48 41.79340 12.20073 1683 ft 193 kts 260°
2026-05-06 11:48 41.79261 12.18215 2217 ft 202 kts 262°
2026-05-06 11:48 41.79182 12.16325 2913 ft 202 kts 256°
2026-05-06 11:49 41.78676 12.14621 3621 ft 196 kts 231°
2026-05-06 11:49 41.77723 12.13327 4311 ft 196 kts 222°
2026-05-06 11:49 41.76715 12.12084 4990 ft 197 kts 224°
2026-05-06 11:49 41.76044 12.11253 5418 ft 199 kts 224°
2026-05-06 11:50 41.74675 12.09559 6274 ft 202 kts 224°
2026-05-06 11:50 41.73652 12.08291 6821 ft 204 kts 224°
2026-05-06 11:50 41.72509 12.07099 7245 ft 217 kts 207°
2026-05-06 11:50 41.70955 12.06773 7522 ft 244 kts 172°
2026-05-06 11:51 41.69864 12.07357 7879 ft 257 kts 152°
2026-05-06 11:51 41.68376 12.08741 8521 ft 264 kts 148°
2026-05-06 11:51 41.66854 12.10225 8935 ft 283 kts 148°
2026-05-06 11:51 41.65244 12.11821 9591 ft 291 kts 147°
2026-05-06 11:52 41.63596 12.13455 10265 ft 299 kts 147°
2026-05-06 11:52 41.61861 12.15159 10518 ft 322 kts 147°
2026-05-06 11:52 41.59988 12.16982 10789 ft 341 kts 147°
2026-05-06 11:52 41.58048 12.18869 11387 ft 348 kts 147°
2026-05-06 11:53 41.56073 12.20789 12077 ft 352 kts 147°
2026-05-06 11:53 41.54079 12.22728 12787 ft 356 kts 147°
2026-05-06 11:53 41.52063 12.24689 13471 ft 360 kts 147°
2026-05-06 11:53 41.50021 12.26671 14124 ft 364 kts 147°
2026-05-06 11:54 41.47989 12.28639 14731 ft 367 kts 147°
2026-05-06 11:54 41.45913 12.30644 15361 ft 369 kts 147°
2026-05-06 11:54 41.43826 12.32656 15989 ft 372 kts 148°
2026-05-06 11:54 41.41723 12.34684 16612 ft 374 kts 148°
2026-05-06 11:55 41.39604 12.36727 17236 ft 377 kts 148°
2026-05-06 11:55 41.37471 12.38787 17859 ft 379 kts 148°
2026-05-06 11:55 41.35328 12.40871 18449 ft 383 kts 146°
2026-05-06 11:55 41.33382 12.43344 18937 ft 390 kts 137°
2026-05-06 11:56 41.31493 12.45964 19443 ft 394 kts 137°
2026-05-06 11:56 41.29591 12.48613 19948 ft 397 kts 137°
2026-05-06 11:56 41.27676 12.51287 20451 ft 401 kts 137°
2026-05-06 11:56 41.25748 12.53980 20948 ft 404 kts 137°
2026-05-06 11:57 41.23799 12.56703 21445 ft 407 kts 137°
2026-05-06 11:57 41.21840 12.59439 21930 ft 411 kts 137°
2026-05-06 11:57 41.19884 12.62166 22408 ft 414 kts 138°
2026-05-06 11:57 41.17885 12.64948 22878 ft 417 kts 138°
2026-05-06 11:58 41.15869 12.67748 23341 ft 421 kts 138°
2026-05-06 11:58 41.13837 12.70569 23764 ft 424 kts 138°
2026-05-06 11:58 41.11797 12.73401 24147 ft 426 kts 138°
2026-05-06 11:58 41.09743 12.76251 24531 ft 428 kts 138°
2026-05-06 11:59 41.07681 12.79114 24905 ft 430 kts 138°
2026-05-06 11:59 41.05606 12.81990 25282 ft 432 kts 139°
2026-05-06 11:59 41.03519 12.84872 25640 ft 434 kts 139°
2026-05-06 11:59 41.01420 12.87764 25992 ft 436 kts 139°
2026-05-06 12:00 40.99312 12.90665 26341 ft 438 kts 139°
2026-05-06 12:00 40.97194 12.93580 26689 ft 440 kts 139°
2026-05-06 12:00 40.95067 12.96508 27028 ft 442 kts 139°
2026-05-06 12:00 40.92931 12.99447 27357 ft 444 kts 139°
2026-05-06 12:01 40.90807 13.02368 27673 ft 446 kts 139°
2026-05-06 12:01 40.88645 13.05335 27994 ft 448 kts 139°
2026-05-06 12:01 40.86469 13.08314 28299 ft 451 kts 139°
2026-05-06 12:01 40.84282 13.11309 28595 ft 453 kts 139°
2026-05-06 12:02 40.82086 13.14315 28874 ft 455 kts 140°
2026-05-06 12:02 40.79881 13.17331 29147 ft 458 kts 140°
2026-05-06 12:02 40.77664 13.20361 29411 ft 460 kts 140°
2026-05-06 12:02 40.75433 13.23400 29662 ft 462 kts 140°
2026-05-06 12:03 40.73187 13.26455 29900 ft 465 kts 140°
2026-05-06 12:03 40.70980 13.29598 30125 ft 471 kts 134°
2026-05-06 12:03 40.69080 13.33160 30324 ft 479 kts 127°
2026-05-06 12:03 40.67313 13.36890 30518 ft 481 kts 127°
2026-05-06 12:04 40.65532 13.40639 30736 ft 482 kts 127°
2026-05-06 12:04 40.63772 13.44334 30916 ft 483 kts 127°
2026-05-06 12:04 40.61982 13.48079 31187 ft 483 kts 127°
2026-05-06 12:04 40.60195 13.51811 31479 ft 481 kts 127°
2026-05-06 12:05 40.58413 13.55533 31776 ft 480 kts 127°
2026-05-06 12:05 40.56633 13.59246 32068 ft 479 kts 127°
2026-05-06 12:05 40.54853 13.62955 32360 ft 478 kts 127°
2026-05-06 12:05 40.53077 13.66648 32655 ft 477 kts 127°
2026-05-06 12:06 40.51304 13.70326 32947 ft 476 kts 127°
2026-05-06 12:06 40.49525 13.74010 33219 ft 476 kts 127°
2026-05-06 12:06 40.47750 13.77683 33502 ft 475 kts 127°
2026-05-06 12:06 40.45978 13.81351 33785 ft 474 kts 127°
2026-05-06 12:07 40.44209 13.85010 34055 ft 474 kts 127°
2026-05-06 12:07 40.42441 13.88661 34308 ft 473 kts 127°
2026-05-06 12:07 40.40689 13.92271 34545 ft 472 kts 127°
2026-05-06 12:07 40.38925 13.95909 34787 ft 471 kts 127°
2026-05-06 12:08 40.37164 13.99537 34974 ft 471 kts 127°
2026-05-06 12:08 40.35406 14.03156 35022 ft 468 kts 127°
2026-05-06 12:08 40.31933 14.10296 35022 ft 466 kts 127°
2026-05-06 12:09 40.28429 14.17452 35021 ft 465 kts 127°
2026-05-06 12:09 40.24935 14.24583 35024 ft 465 kts 127°
2026-05-06 12:10 40.21442 14.31702 35023 ft 465 kts 127°
2026-05-06 12:10 40.17963 14.38785 35021 ft 465 kts 127°
2026-05-06 12:11 40.14445 14.45910 35023 ft 465 kts 127°
2026-05-06 12:11 40.10934 14.53023 35033 ft 465 kts 127°
2026-05-06 12:12 40.07412 14.60127 35026 ft 466 kts 127°
2026-05-06 12:12 40.03888 14.67228 35022 ft 466 kts 127°
2026-05-06 12:13 40.00350 14.74340 35018 ft 467 kts 127°
2026-05-06 12:13 39.96806 14.81451 35015 ft 468 kts 127°
2026-05-06 12:14 39.93249 14.88572 35012 ft 468 kts 127°
2026-05-06 12:14 39.89702 14.95652 35010 ft 469 kts 127°
2026-05-06 12:15 39.87919 14.99211 34874 ft 470 kts 126°
2026-05-06 12:15 39.86126 15.02782 34317 ft 472 kts 126°
2026-05-06 12:15 39.84312 15.06391 33249 ft 479 kts 126°
2026-05-06 12:15 39.82486 15.10022 32583 ft 476 kts 126°
2026-05-06 12:16 39.80676 15.13612 31989 ft 472 kts 127°
2026-05-06 12:16 39.78899 15.17131 31384 ft 469 kts 127°
2026-05-06 12:16 39.77112 15.20668 30775 ft 466 kts 127°
2026-05-06 12:16 39.75326 15.24203 30176 ft 464 kts 127°
2026-05-06 12:17 39.73558 15.27699 29526 ft 461 kts 127°
2026-05-06 12:17 39.71738 15.31096 28949 ft 454 kts 133°
2026-05-06 12:17 39.69630 15.34022 28423 ft 443 kts 142°
2026-05-06 12:17 39.67304 15.36622 27888 ft 438 kts 144°
2026-05-06 12:18 39.64999 15.39174 27378 ft 433 kts 143°
2026-05-06 12:18 39.62715 15.41706 26862 ft 429 kts 143°
2026-05-06 12:18 39.60484 15.44186 26369 ft 425 kts 143°
2026-05-06 12:18 39.58249 15.46675 25882 ft 421 kts 143°
2026-05-06 12:19 39.56040 15.49138 25410 ft 417 kts 143°
2026-05-06 12:19 39.53842 15.51582 24942 ft 413 kts 143°
2026-05-06 12:19 39.51662 15.53998 24490 ft 410 kts 143°
2026-05-06 12:19 39.49529 15.56356 24037 ft 407 kts 143°
2026-05-06 12:20 39.47379 15.58731 23594 ft 404 kts 143°
2026-05-06 12:20 39.45244 15.61094 23075 ft 401 kts 143°
2026-05-06 12:20 39.43135 15.63430 22630 ft 397 kts 143°
2026-05-06 12:20 39.41041 15.65747 22184 ft 393 kts 143°
2026-05-06 12:21 39.38972 15.68033 21722 ft 390 kts 143°
2026-05-06 12:21 39.36908 15.70308 21275 ft 387 kts 143°
2026-05-06 12:21 39.34859 15.72563 20814 ft 384 kts 143°
2026-05-06 12:21 39.32850 15.74772 20362 ft 382 kts 143°
2026-05-06 12:22 39.30827 15.76992 19895 ft 380 kts 143°
2026-05-06 12:22 39.28812 15.79204 19431 ft 379 kts 143°
2026-05-06 12:22 39.26806 15.81407 18970 ft 378 kts 143°
2026-05-06 12:22 39.24797 15.83605 18507 ft 377 kts 143°
2026-05-06 12:23 39.22791 15.85792 17998 ft 376 kts 143°
2026-05-06 12:23 39.20794 15.87968 17535 ft 374 kts 143°
2026-05-06 12:23 39.18852 15.90188 17072 ft 373 kts 140°
2026-05-06 12:23 39.16988 15.92506 16632 ft 371 kts 138°
2026-05-06 12:24 39.15177 15.94866 16196 ft 369 kts 137°
2026-05-06 12:24 39.13383 15.97236 15729 ft 368 kts 137°
2026-05-06 12:24 39.11619 15.99558 15304 ft 366 kts 137°
2026-05-06 12:24 39.09832 16.01887 14867 ft 364 kts 137°
2026-05-06 12:25 39.08044 16.04193 14431 ft 363 kts 138°
2026-05-06 12:25 39.06256 16.06482 13987 ft 362 kts 138°
2026-05-06 12:25 39.04464 16.08765 13516 ft 361 kts 138°
2026-05-06 12:25 39.02687 16.11021 13069 ft 359 kts 138°
2026-05-06 12:26 39.00910 16.13273 12611 ft 357 kts 138°
2026-05-06 12:26 38.99134 16.15526 12165 ft 356 kts 138°
2026-05-06 12:26 38.97411 16.17715 11993 ft 346 kts 138°
2026-05-06 12:26 38.95711 16.19879 11877 ft 334 kts 138°
2026-05-06 12:27 38.94101 16.21926 11736 ft 325 kts 138°
2026-05-06 12:27 38.92500 16.23957 11436 ft 322 kts 138°
2026-05-06 12:27 38.90939 16.26012 11111 ft 321 kts 131°
2026-05-06 12:27 38.89820 16.28479 10813 ft 320 kts 114°
2026-05-06 12:28 38.88979 16.31110 10586 ft 315 kts 114°
2026-05-06 12:28 38.88151 16.33698 10287 ft 312 kts 115°
2026-05-06 12:28 38.87318 16.36284 9893 ft 313 kts 115°
2026-05-06 12:28 38.86481 16.38867 9465 ft 313 kts 115°
2026-05-06 12:29 38.85656 16.41408 9064 ft 312 kts 115°
2026-05-06 12:29 38.84821 16.43981 8667 ft 310 kts 115°
2026-05-06 12:29 38.83996 16.46531 8270 ft 309 kts 114°
2026-05-06 12:29 38.83182 16.49050 7871 ft 300 kts 114°
2026-05-06 12:30 38.82401 16.51466 7501 ft 286 kts 115°
2026-05-06 12:30 38.81654 16.53777 7145 ft 274 kts 115°
2026-05-06 12:30 38.81179 16.55247 6989 ft 262 kts 115°
2026-05-06 12:30 38.80507 16.57321 6839 ft 244 kts 115°
2026-05-06 12:31 38.79991 16.59380 6307 ft 245 kts 96°
2026-05-06 12:31 38.80275 16.61468 6073 ft 233 kts 64°
2026-05-06 12:31 38.81242 16.63051 5815 ft 223 kts 36°
2026-05-06 12:31 38.82626 16.63811 5646 ft 215 kts
2026-05-06 12:32 38.84119 16.63662 5627 ft 216 kts 337°
2026-05-06 12:32 38.85377 16.62676 5529 ft 211 kts 310°
2026-05-06 12:32 38.86131 16.61105 5345 ft 206 kts 283°
2026-05-06 12:32 38.86386 16.59309 5104 ft 204 kts 276°
2026-05-06 12:33 38.86596 16.57522 4846 ft 205 kts 276°
2026-05-06 12:33 38.86812 16.55709 4572 ft 205 kts 277°
2026-05-06 12:33 38.87029 16.53900 4297 ft 205 kts 277°
2026-05-06 12:33 38.87245 16.52088 4023 ft 205 kts 277°
2026-05-06 12:34 38.87461 16.50277 3752 ft 205 kts 277°
2026-05-06 12:34 38.87677 16.48472 3494 ft 204 kts 277°
2026-05-06 12:34 38.87891 16.46672 3226 ft 204 kts 277°
2026-05-06 12:34 38.88105 16.44874 2954 ft 204 kts 278°
2026-05-06 12:35 38.88318 16.43078 2686 ft 203 kts 277°
2026-05-06 12:35 38.88531 16.41285 2421 ft 204 kts 278°
2026-05-06 12:35 38.88745 16.39478 2174 ft 203 kts 277°
2026-05-06 12:35 38.88957 16.37686 1873 ft 202 kts 277°
2026-05-06 12:36 38.89166 16.35922 1597 ft 195 kts 277°
2026-05-06 12:36 38.89358 16.34290 1350 ft 180 kts 277°
2026-05-06 12:36 38.89541 16.32742 1122 ft 168 kts 277°
2026-05-06 12:36 38.89710 16.31304 906 ft 157 kts 277°
2026-05-06 12:37 38.89864 16.29977 732 ft 147 kts 277°
2026-05-06 12:37 38.90017 16.28685 525 ft 140 kts 277°
2026-05-06 12:37 38.90158 16.27487 349 ft 136 kts 278°
2026-05-06 12:37 38.90297 16.26304 172 ft 133 kts 277°
2026-05-06 12:38 38.90436 16.25145 37 ft 123 kts 278°
2026-05-06 12:38 38.90530 16.24238 27 ft 78 kts 277°
2026-05-06 12:38 38.90607 16.23714 32 ft 45 kts 292°
2026-05-06 12:38 38.90742 16.23502 32 ft 18 kts 337°
2026-05-06 12:39 38.90775 16.23487 32 ft 0 kts 340°
2026-05-06 12:39 38.90787 16.23491 32 ft 6 kts 12°
2026-05-06 12:39 38.90830 16.23533 32 ft 8 kts 59°
2026-05-06 12:39 38.90835 16.23602 32 ft 11 kts 92°
2026-05-06 12:40 38.90823 16.23702 32 ft 13 kts 100°
2026-05-06 12:40 38.90803 16.23862 32 ft 20 kts 97°
2026-05-06 12:40 38.90783 16.24039 32 ft 20 kts 99°
2026-05-06 12:40 38.90805 16.24207 32 ft 19 kts 53°
2026-05-06 12:41 38.90825 16.24318 30 ft 2 kts 99°
2026-05-06 12:41 38.90833 16.24348 32 ft 3 kts 38°
2026-05-06 12:41 38.90853 16.24358 32 ft 3 kts 15°
2026-05-06 12:41 38.90867 16.24360 32 ft 2 kts
2026-05-06 12:42 38.90876 16.24362 32 ft 1 kts
2026-05-06 12:42 38.90882 16.24363 32 ft 0 kts